Date,TemperatureHighF,TemperatureAvgF,TemperatureLowF,DewpointHighF,DewpointAvgF,DewpointLowF,HumidityHigh,HumidityAvg,HumidityLow,PressureMaxIn,PressureMinIn,WindSpeedMaxMPH,WindSpeedAvgMPH,GustSpeedMaxMPH,PrecipitationSumIn
2013-1-1,25.7,22.7,18.0,17.5,13.4,11.3,75,67,58,30.14,30.01,5,0,12,0.00
2013-1-2,26.0,22.1,16.9,22.3,16.9,11.2,86,80,75,30.15,30.04,3,0,9,0.00
2013-1-3,29.3,25.7,21.3,23.7,20.4,15.4,86,80,76,30.10,29.99,9,1,16,0.00
2013-1-4,34.6,29.6,26.5,26.1,23.2,20.2,84,77,69,30.12,29.92,13,3,23,0.00
2013-1-5,37.2,28.1,16.4,31.0,24.2,13.9,93,85,71,30.22,29.92,6,1,10,0.00
2013-1-6,35.0,33.7,29.8,33.7,30.2,24.8,100,87,77,30.22,29.81,7,1,11,0.09
2013-1-7,37.8,32.1,28.4,27.0,25.1,22.7,87,76,55,30.27,30.03,16,2,23,0.00
2013-1-8,40.9,32.0,26.9,32.9,26.6,23.0,86,81,71,30.17,30.05,5,1,7,0.00
2013-1-9,46.6,38.2,27.7,34.5,29.8,23.4,88,73,52,30.38,29.90,24,3,25,0.01
2013-1-10,44.7,33.0,22.8,32.3,27.0,20.5,93,80,58,30.53,30.14,5,0,11,0.13
2013-1-11,51.4,43.2,34.9,50.2,41.6,32.3,96,94,90,30.12,29.66,5,1,13,0.64
2013-1-12,56.8,48.8,41.3,49.8,41.9,32.7,95,78,56,29.89,29.70,10,1,19,0.00
2013-1-13,41.1,35.1,26.6,36.4,33.1,22.7,100,92,79,29.99,29.75,5,0,10,0.39
2013-1-14,27.4,21.7,13.5,22.6,15.4,10.8,90,77,62,30.39,29.99,9,1,16,0.03
2013-1-15,28.0,19.1,11.6,19.8,14.5,8.9,91,82,70,30.41,30.13,6,0,10,0.00
2013-1-16,35.4,25.4,13.7,29.5,20.7,11.0,90,83,64,30.13,29.70,12,2,21,0.01
2013-1-17,32.2,24.5,16.2,28.4,17.6,7.7,86,75,62,30.30,29.91,6,0,9,0.00
2013-1-18,35.0,22.1,7.4,27.1,16.0,4.3,88,78,63,30.40,29.83,16,2,21,0.00
2013-1-19,41.9,37.7,33.5,37.1,31.6,25.8,90,79,73,29.83,29.43,11,2,21,0.02
2013-1-20,35.6,19.9,13.0,32.0,10.9,4.7,90,68,59,30.16,29.45,17,3,31,0.01
2013-1-21,15.3,11.3,3.3,10.8,2.8,-4.0,84,68,53,30.12,29.94,10,1,17,0.00
2013-1-22,9.6,4.0,0.0,-1.0,-4.2,-8.0,75,67,53,30.28,30.10,9,1,13,0.00
2013-1-23,17.2,10.4,2.7,12.2,5.4,-2.0,86,80,71,30.28,30.06,6,0,12,0.00
2013-1-24,19.1,11.2,4.0,7.8,4.4,0.5,92,75,51,30.61,30.16,3,0,6,0.00
2013-1-25,22.0,16.9,12.4,16.8,12.3,5.1,89,82,72,30.49,29.98,3,0,9,0.00
2013-1-26,30.6,21.7,13.3,19.2,15.5,9.9,90,78,56,30.40,30.02,3,0,7,0.06
2013-1-27,29.6,22.8,12.0,25.3,17.6,8.9,92,81,65,30.43,30.09,6,0,11,0.00
2013-1-28,40.7,35.4,27.5,39.4,33.5,25.4,100,93,89,30.09,29.79,6,0,11,0.31
2013-1-29,54.1,43.8,34.0,53.2,42.6,32.1,97,95,92,29.97,29.33,5,0,7,0.82
2013-1-30,53.9,41.5,30.5,53.0,39.9,25.0,97,94,80,29.34,29.01,11,1,20,0.48
2013-1-31,30.1,22.0,17.9,24.3,13.7,9.0,84,71,54,29.84,29.19,16,3,23,0.00